sensor_id;sensor_type;location;lat;lon;timestamp;P1;durP1;ratioP1;P2;durP2;ratioP2
47725;SDS011;33483;48.294;16.388;2022-07-23T00:01:07;9.18;;;6.50;;
47725;SDS011;33483;48.294;16.388;2022-07-23T00:03:35;8.43;;;6.40;;
47725;SDS011;33483;48.294;16.388;2022-07-23T00:06:03;11.15;;;6.50;;
47725;SDS011;33483;48.294;16.388;2022-07-23T00:08:35;8.85;;;6.63;;
47725;SDS011;33483;48.294;16.388;2022-07-23T00:11:03;8.30;;;6.22;;
47725;SDS011;33483;48.294;16.388;2022-07-23T00:13:31;9.90;;;6.82;;
47725;SDS011;33483;48.294;16.388;2022-07-23T00:15:59;9.90;;;6.97;;
47725;SDS011;33483;48.294;16.388;2022-07-23T00:18:31;11.73;;;7.18;;
47725;SDS011;33483;48.294;16.388;2022-07-23T00:20:59;9.60;;;6.38;;
47725;SDS011;33483;48.294;16.388;2022-07-23T00:23:26;10.32;;;7.53;;
47725;SDS011;33483;48.294;16.388;2022-07-23T00:25:55;8.15;;;6.47;;
47725;SDS011;33483;48.294;16.388;2022-07-23T00:28:23;9.98;;;6.93;;
47725;SDS011;33483;48.294;16.388;2022-07-23T00:31:00;9.70;;;6.57;;
47725;SDS011;33483;48.294;16.388;2022-07-23T00:33:32;12.52;;;6.85;;
47725;SDS011;33483;48.294;16.388;2022-07-23T00:36:01;7.78;;;6.28;;
47725;SDS011;33483;48.294;16.388;2022-07-23T00:38:29;10.10;;;6.25;;
47725;SDS011;33483;48.294;16.388;2022-07-23T00:41:05;9.27;;;6.50;;
47725;SDS011;33483;48.294;16.388;2022-07-23T00:43:40;9.63;;;6.38;;
47725;SDS011;33483;48.294;16.388;2022-07-23T00:46:11;10.43;;;6.32;;
47725;SDS011;33483;48.294;16.388;2022-07-23T00:48:48;9.40;;;5.80;;
47725;SDS011;33483;48.294;16.388;2022-07-23T00:51:23;7.60;;;6.25;;
47725;SDS011;33483;48.294;16.388;2022-07-23T00:53:51;8.70;;;6.72;;
47725;SDS011;33483;48.294;16.388;2022-07-23T00:56:18;11.95;;;6.35;;
47725;SDS011;33483;48.294;16.388;2022-07-23T00:58:49;7.38;;;6.05;;
47725;SDS011;33483;48.294;16.388;2022-07-23T01:01:17;8.20;;;5.78;;
47725;SDS011;33483;48.294;16.388;2022-07-23T01:03:45;8.60;;;6.15;;
47725;SDS011;33483;48.294;16.388;2022-07-23T01:06:13;6.85;;;5.80;;
47725;SDS011;33483;48.294;16.388;2022-07-23T01:08:41;8.32;;;6.18;;
47725;SDS011;33483;48.294;16.388;2022-07-23T01:11:09;11.43;;;6.10;;
47725;SDS011;33483;48.294;16.388;2022-07-23T01:13:40;7.88;;;5.97;;
47725;SDS011;33483;48.294;16.388;2022-07-23T01:16:09;8.15;;;5.97;;
47725;SDS011;33483;48.294;16.388;2022-07-23T01:18:50;14.77;;;6.78;;
47725;SDS011;33483;48.294;16.388;2022-07-23T01:21:18;13.30;;;6.07;;
47725;SDS011;33483;48.294;16.388;2022-07-23T01:23:47;9.63;;;6.05;;
47725;SDS011;33483;48.294;16.388;2022-07-23T01:26:14;11.60;;;6.30;;
47725;SDS011;33483;48.294;16.388;2022-07-23T01:28:48;7.97;;;5.80;;
47725;SDS011;33483;48.294;16.388;2022-07-23T01:31:15;8.48;;;6.10;;
47725;SDS011;33483;48.294;16.388;2022-07-23T01:33:42;8.68;;;5.82;;
47725;SDS011;33483;48.294;16.388;2022-07-23T01:36:10;16.02;;;6.47;;
47725;SDS011;33483;48.294;16.388;2022-07-23T01:38:38;7.43;;;5.72;;
47725;SDS011;33483;48.294;16.388;2022-07-23T01:41:06;8.50;;;5.63;;
47725;SDS011;33483;48.294;16.388;2022-07-23T01:43:33;6.90;;;5.53;;
47725;SDS011;33483;48.294;16.388;2022-07-23T01:46:01;14.05;;;6.80;;
47725;SDS011;33483;48.294;16.388;2022-07-23T01:48:35;11.48;;;6.22;;
47725;SDS011;33483;48.294;16.388;2022-07-23T01:51:21;9.35;;;6.00;;
47725;SDS011;33483;48.294;16.388;2022-07-23T01:53:57;8.75;;;5.72;;
47725;SDS011;33483;48.294;16.388;2022-07-23T01:56:25;8.77;;;5.40;;
47725;SDS011;33483;48.294;16.388;2022-07-23T01:58:52;8.65;;;5.70;;
47725;SDS011;33483;48.294;16.388;2022-07-23T02:01:21;7.53;;;5.78;;
47725;SDS011;33483;48.294;16.388;2022-07-23T02:03:51;8.75;;;5.70;;
47725;SDS011;33483;48.294;16.388;2022-07-23T02:06:18;7.70;;;6.20;;
47725;SDS011;33483;48.294;16.388;2022-07-23T02:08:45;7.88;;;6.28;;
47725;SDS011;33483;48.294;16.388;2022-07-23T02:11:12;10.25;;;6.93;;
47725;SDS011;33483;48.294;16.388;2022-07-23T02:13:39;9.40;;;6.75;;
47725;SDS011;33483;48.294;16.388;2022-07-23T02:16:07;13.68;;;7.38;;
47725;SDS011;33483;48.294;16.388;2022-07-23T02:18:34;11.60;;;7.15;;
47725;SDS011;33483;48.294;16.388;2022-07-23T02:21:03;12.00;;;7.30;;
47725;SDS011;33483;48.294;16.388;2022-07-23T02:23:33;10.90;;;7.78;;
47725;SDS011;33483;48.294;16.388;2022-07-23T02:26:00;9.10;;;6.75;;
47725;SDS011;33483;48.294;16.388;2022-07-23T02:28:30;14.45;;;7.10;;
47725;SDS011;33483;48.294;16.388;2022-07-23T02:30:59;8.65;;;7.40;;
47725;SDS011;33483;48.294;16.388;2022-07-23T02:33:26;11.48;;;7.75;;
47725;SDS011;33483;48.294;16.388;2022-07-23T02:35:56;13.88;;;6.90;;
47725;SDS011;33483;48.294;16.388;2022-07-23T02:38:26;12.25;;;7.63;;
47725;SDS011;33483;48.294;16.388;2022-07-23T02:40:53;9.32;;;7.32;;
47725;SDS011;33483;48.294;16.388;2022-07-23T02:43:20;14.07;;;7.25;;
47725;SDS011;33483;48.294;16.388;2022-07-23T02:45:50;10.82;;;7.07;;
47725;SDS011;33483;48.294;16.388;2022-07-23T02:48:20;10.40;;;6.43;;
47725;SDS011;33483;48.294;16.388;2022-07-23T02:50:48;9.27;;;6.90;;
47725;SDS011;33483;48.294;16.388;2022-07-23T02:53:20;12.10;;;7.22;;
47725;SDS011;33483;48.294;16.388;2022-07-23T02:55:47;13.90;;;7.75;;
47725;SDS011;33483;48.294;16.388;2022-07-23T02:58:15;11.82;;;8.45;;
47725;SDS011;33483;48.294;16.388;2022-07-23T03:00:42;10.93;;;8.45;;
47725;SDS011;33483;48.294;16.388;2022-07-23T03:03:09;11.27;;;8.07;;
47725;SDS011;33483;48.294;16.388;2022-07-23T03:05:36;12.90;;;8.15;;
47725;SDS011;33483;48.294;16.388;2022-07-23T03:08:08;12.88;;;8.25;;
47725;SDS011;33483;48.294;16.388;2022-07-23T03:10:38;10.88;;;8.25;;
47725;SDS011;33483;48.294;16.388;2022-07-23T03:13:05;14.18;;;8.18;;
47725;SDS011;33483;48.294;16.388;2022-07-23T03:15:32;9.35;;;7.45;;
47725;SDS011;33483;48.294;16.388;2022-07-23T03:17:59;10.98;;;7.70;;
47725;SDS011;33483;48.294;16.388;2022-07-23T03:20:28;14.55;;;8.98;;
47725;SDS011;33483;48.294;16.388;2022-07-23T03:22:55;9.98;;;8.05;;
47725;SDS011;33483;48.294;16.388;2022-07-23T03:25:23;12.90;;;7.95;;
47725;SDS011;33483;48.294;16.388;2022-07-23T03:27:50;11.98;;;7.68;;
47725;SDS011;33483;48.294;16.388;2022-07-23T03:30:19;10.52;;;7.75;;
47725;SDS011;33483;48.294;16.388;2022-07-23T03:32:49;10.50;;;8.20;;
47725;SDS011;33483;48.294;16.388;2022-07-23T03:35:16;11.90;;;7.43;;
47725;SDS011;33483;48.294;16.388;2022-07-23T03:37:55;10.70;;;7.68;;
47725;SDS011;33483;48.294;16.388;2022-07-23T03:40:25;12.25;;;8.32;;
47725;SDS011;33483;48.294;16.388;2022-07-23T03:42:52;12.98;;;7.53;;
47725;SDS011;33483;48.294;16.388;2022-07-23T03:45:19;11.30;;;7.05;;
47725;SDS011;33483;48.294;16.388;2022-07-23T03:47:46;11.15;;;7.38;;
47725;SDS011;33483;48.294;16.388;2022-07-23T03:50:14;12.20;;;7.57;;
47725;SDS011;33483;48.294;16.388;2022-07-23T03:52:41;10.88;;;7.88;;
47725;SDS011;33483;48.294;16.388;2022-07-23T03:55:11;13.75;;;7.05;;
47725;SDS011;33483;48.294;16.388;2022-07-23T03:57:38;11.05;;;7.15;;
47725;SDS011;33483;48.294;16.388;2022-07-23T04:00:08;9.20;;;7.13;;
47725;SDS011;33483;48.294;16.388;2022-07-23T04:02:40;10.25;;;6.80;;
47725;SDS011;33483;48.294;16.388;2022-07-23T04:05:09;13.45;;;7.43;;
47725;SDS011;33483;48.294;16.388;2022-07-23T04:07:41;11.20;;;7.55;;
47725;SDS011;33483;48.294;16.388;2022-07-23T04:10:08;9.43;;;7.00;;
47725;SDS011;33483;48.294;16.388;2022-07-23T04:12:36;13.48;;;7.95;;
47725;SDS011;33483;48.294;16.388;2022-07-23T04:15:04;11.68;;;7.45;;
47725;SDS011;33483;48.294;16.388;2022-07-23T04:17:33;11.90;;;7.47;;
47725;SDS011;33483;48.294;16.388;2022-07-23T04:20:01;18.40;;;7.30;;
47725;SDS011;33483;48.294;16.388;2022-07-23T04:22:34;10.32;;;7.30;;
47725;SDS011;33483;48.294;16.388;2022-07-23T04:25:01;12.63;;;7.97;;
47725;SDS011;33483;48.294;16.388;2022-07-23T04:27:28;11.07;;;7.47;;
47725;SDS011;33483;48.294;16.388;2022-07-23T04:29:55;10.80;;;7.20;;
47725;SDS011;33483;48.294;16.388;2022-07-23T04:32:22;12.27;;;7.18;;
47725;SDS011;33483;48.294;16.388;2022-07-23T04:34:49;9.65;;;7.10;;
47725;SDS011;33483;48.294;16.388;2022-07-23T04:37:17;12.82;;;7.40;;
47725;SDS011;33483;48.294;16.388;2022-07-23T04:39:47;9.38;;;6.78;;
47725;SDS011;33483;48.294;16.388;2022-07-23T04:42:19;12.23;;;7.05;;
47725;SDS011;33483;48.294;16.388;2022-07-23T04:44:48;14.90;;;7.65;;
47725;SDS011;33483;48.294;16.388;2022-07-23T04:47:16;9.60;;;6.68;;
47725;SDS011;33483;48.294;16.388;2022-07-23T04:49:44;7.10;;;5.85;;
47725;SDS011;33483;48.294;16.388;2022-07-23T04:52:11;11.27;;;6.97;;
47725;SDS011;33483;48.294;16.388;2022-07-23T04:54:39;9.05;;;6.68;;
47725;SDS011;33483;48.294;16.388;2022-07-23T04:57:09;9.23;;;6.35;;
47725;SDS011;33483;48.294;16.388;2022-07-23T04:59:37;10.70;;;6.72;;
47725;SDS011;33483;48.294;16.388;2022-07-23T05:02:04;11.52;;;6.22;;
47725;SDS011;33483;48.294;16.388;2022-07-23T05:04:33;7.60;;;6.32;;
47725;SDS011;33483;48.294;16.388;2022-07-23T05:07:03;12.90;;;6.97;;
47725;SDS011;33483;48.294;16.388;2022-07-23T05:09:33;12.30;;;6.93;;
47725;SDS011;33483;48.294;16.388;2022-07-23T05:12:04;10.95;;;7.18;;
47725;SDS011;33483;48.294;16.388;2022-07-23T05:14:33;9.30;;;6.78;;
47725;SDS011;33483;48.294;16.388;2022-07-23T05:17:00;9.00;;;6.20;;
47725;SDS011;33483;48.294;16.388;2022-07-23T05:19:27;9.80;;;6.40;;
47725;SDS011;33483;48.294;16.388;2022-07-23T05:21:55;11.68;;;6.88;;
47725;SDS011;33483;48.294;16.388;2022-07-23T05:24:22;11.15;;;6.57;;
47725;SDS011;33483;48.294;16.388;2022-07-23T05:26:51;9.43;;;7.00;;
47725;SDS011;33483;48.294;16.388;2022-07-23T05:29:19;15.60;;;7.30;;
47725;SDS011;33483;48.294;16.388;2022-07-23T05:31:48;9.88;;;6.90;;
47725;SDS011;33483;48.294;16.388;2022-07-23T05:34:15;11.65;;;6.60;;
47725;SDS011;33483;48.294;16.388;2022-07-23T05:36:44;10.70;;;6.80;;
47725;SDS011;33483;48.294;16.388;2022-07-23T05:39:11;10.77;;;6.65;;
47725;SDS011;33483;48.294;16.388;2022-07-23T05:41:38;11.70;;;6.78;;
47725;SDS011;33483;48.294;16.388;2022-07-23T05:44:11;12.13;;;6.60;;
47725;SDS011;33483;48.294;16.388;2022-07-23T05:46:40;9.88;;;6.40;;
47725;SDS011;33483;48.294;16.388;2022-07-23T05:49:11;10.30;;;5.88;;
47725;SDS011;33483;48.294;16.388;2022-07-23T05:51:57;10.32;;;6.43;;
47725;SDS011;33483;48.294;16.388;2022-07-23T05:54:39;10.52;;;6.40;;
47725;SDS011;33483;48.294;16.388;2022-07-23T05:57:09;7.00;;;6.10;;
47725;SDS011;33483;48.294;16.388;2022-07-23T05:59:36;9.40;;;6.50;;
47725;SDS011;33483;48.294;16.388;2022-07-23T06:02:03;10.52;;;6.57;;
47725;SDS011;33483;48.294;16.388;2022-07-23T06:04:30;10.30;;;6.38;;
47725;SDS011;33483;48.294;16.388;2022-07-23T06:07:18;9.07;;;6.30;;
47725;SDS011;33483;48.294;16.388;2022-07-23T06:09:48;9.10;;;6.25;;
47725;SDS011;33483;48.294;16.388;2022-07-23T06:12:17;10.25;;;6.88;;
47725;SDS011;33483;48.294;16.388;2022-07-23T06:14:44;10.73;;;6.93;;
47725;SDS011;33483;48.294;16.388;2022-07-23T06:17:12;8.13;;;6.90;;
47725;SDS011;33483;48.294;16.388;2022-07-23T06:19:39;9.55;;;7.10;;
47725;SDS011;33483;48.294;16.388;2022-07-23T06:22:06;11.68;;;7.03;;
47725;SDS011;33483;48.294;16.388;2022-07-23T06:24:33;12.93;;;7.07;;
47725;SDS011;33483;48.294;16.388;2022-07-23T06:27:00;8.35;;;6.25;;
47725;SDS011;33483;48.294;16.388;2022-07-23T06:29:27;13.95;;;6.82;;
47725;SDS011;33483;48.294;16.388;2022-07-23T06:31:57;10.30;;;7.95;;
47725;SDS011;33483;48.294;16.388;2022-07-23T06:34:27;9.55;;;7.20;;
47725;SDS011;33483;48.294;16.388;2022-07-23T06:36:55;13.48;;;7.45;;
47725;SDS011;33483;48.294;16.388;2022-07-23T06:39:25;9.43;;;7.45;;
47725;SDS011;33483;48.294;16.388;2022-07-23T06:41:58;11.35;;;7.03;;
47725;SDS011;33483;48.294;16.388;2022-07-23T06:44:37;10.68;;;6.68;;
47725;SDS011;33483;48.294;16.388;2022-07-23T06:47:07;8.00;;;6.72;;
47725;SDS011;33483;48.294;16.388;2022-07-23T06:49:35;8.02;;;6.85;;
47725;SDS011;33483;48.294;16.388;2022-07-23T06:52:02;7.90;;;6.50;;
47725;SDS011;33483;48.294;16.388;2022-07-23T06:54:32;7.50;;;6.68;;
47725;SDS011;33483;48.294;16.388;2022-07-23T06:56:59;11.65;;;6.57;;
47725;SDS011;33483;48.294;16.388;2022-07-23T06:59:27;10.85;;;6.53;;
47725;SDS011;33483;48.294;16.388;2022-07-23T07:01:54;12.07;;;5.85;;
47725;SDS011;33483;48.294;16.388;2022-07-23T07:04:22;11.20;;;5.82;;
47725;SDS011;33483;48.294;16.388;2022-07-23T07:06:49;8.20;;;5.93;;
47725;SDS011;33483;48.294;16.388;2022-07-23T07:09:16;9.10;;;5.68;;
47725;SDS011;33483;48.294;16.388;2022-07-23T07:11:43;5.63;;;5.00;;
47725;SDS011;33483;48.294;16.388;2022-07-23T07:14:12;8.88;;;5.63;;
47725;SDS011;33483;48.294;16.388;2022-07-23T07:16:41;6.43;;;5.50;;
47725;SDS011;33483;48.294;16.388;2022-07-23T07:19:09;6.30;;;4.72;;
47725;SDS011;33483;48.294;16.388;2022-07-23T07:21:36;8.60;;;4.13;;
47725;SDS011;33483;48.294;16.388;2022-07-23T07:24:03;9.82;;;4.07;;
47725;SDS011;33483;48.294;16.388;2022-07-23T07:26:30;8.30;;;3.90;;
47725;SDS011;33483;48.294;16.388;2022-07-23T07:28:58;6.32;;;3.67;;
47725;SDS011;33483;48.294;16.388;2022-07-23T07:31:27;5.40;;;3.60;;
47725;SDS011;33483;48.294;16.388;2022-07-23T07:33:57;6.60;;;3.28;;
47725;SDS011;33483;48.294;16.388;2022-07-23T07:36:30;4.20;;;3.10;;
47725;SDS011;33483;48.294;16.388;2022-07-23T07:38:57;9.23;;;3.45;;
47725;SDS011;33483;48.294;16.388;2022-07-23T07:41:25;3.97;;;3.40;;
47725;SDS011;33483;48.294;16.388;2022-07-23T07:43:53;7.38;;;2.95;;
47725;SDS011;33483;48.294;16.388;2022-07-23T07:46:22;6.80;;;3.08;;
47725;SDS011;33483;48.294;16.388;2022-07-23T07:48:50;3.38;;;2.75;;
47725;SDS011;33483;48.294;16.388;2022-07-23T07:51:25;3.40;;;2.88;;
47725;SDS011;33483;48.294;16.388;2022-07-23T07:53:53;13.88;;;3.17;;
47725;SDS011;33483;48.294;16.388;2022-07-23T07:56:21;3.83;;;2.80;;
47725;SDS011;33483;48.294;16.388;2022-07-23T07:58:49;3.85;;;3.05;;
47725;SDS011;33483;48.294;16.388;2022-07-23T08:01:16;5.75;;;3.10;;
47725;SDS011;33483;48.294;16.388;2022-07-23T08:03:46;5.95;;;2.88;;
47725;SDS011;33483;48.294;16.388;2022-07-23T08:06:14;4.32;;;3.33;;
47725;SDS011;33483;48.294;16.388;2022-07-23T08:08:41;3.92;;;3.08;;
47725;SDS011;33483;48.294;16.388;2022-07-23T08:11:08;4.70;;;3.38;;
47725;SDS011;33483;48.294;16.388;2022-07-23T08:13:41;8.20;;;3.40;;
47725;SDS011;33483;48.294;16.388;2022-07-23T08:16:11;6.85;;;3.20;;
47725;SDS011;33483;48.294;16.388;2022-07-23T08:18:40;5.45;;;3.33;;
47725;SDS011;33483;48.294;16.388;2022-07-23T08:21:10;3.03;;;2.72;;
47725;SDS011;33483;48.294;16.388;2022-07-23T08:23:38;4.40;;;3.05;;
47725;SDS011;33483;48.294;16.388;2022-07-23T08:26:06;4.18;;;3.28;;
47725;SDS011;33483;48.294;16.388;2022-07-23T08:28:33;4.20;;;2.67;;
47725;SDS011;33483;48.294;16.388;2022-07-23T08:31:01;5.10;;;3.15;;
47725;SDS011;33483;48.294;16.388;2022-07-23T08:33:28;3.67;;;2.80;;
47725;SDS011;33483;48.294;16.388;2022-07-23T08:36:03;3.35;;;3.05;;
47725;SDS011;33483;48.294;16.388;2022-07-23T08:38:31;6.72;;;2.80;;
47725;SDS011;33483;48.294;16.388;2022-07-23T08:41:02;6.57;;;2.95;;
47725;SDS011;33483;48.294;16.388;2022-07-23T08:43:32;5.95;;;3.15;;
47725;SDS011;33483;48.294;16.388;2022-07-23T08:46:02;3.90;;;2.95;;
47725;SDS011;33483;48.294;16.388;2022-07-23T08:48:32;6.78;;;3.28;;
47725;SDS011;33483;48.294;16.388;2022-07-23T08:51:04;6.72;;;3.03;;
47725;SDS011;33483;48.294;16.388;2022-07-23T08:56:07;6.13;;;3.13;;
47725;SDS011;33483;48.294;16.388;2022-07-23T08:58:43;4.40;;;3.03;;
47725;SDS011;33483;48.294;16.388;2022-07-23T09:01:10;3.00;;;2.70;;
47725;SDS011;33483;48.294;16.388;2022-07-23T09:03:38;6.68;;;3.28;;
47725;SDS011;33483;48.294;16.388;2022-07-23T09:06:07;8.20;;;3.38;;
47725;SDS011;33483;48.294;16.388;2022-07-23T09:08:37;3.70;;;3.30;;
47725;SDS011;33483;48.294;16.388;2022-07-23T09:11:13;5.63;;;3.30;;
47725;SDS011;33483;48.294;16.388;2022-07-23T09:13:51;7.22;;;3.75;;
47725;SDS011;33483;48.294;16.388;2022-07-23T09:16:25;5.50;;;3.38;;
47725;SDS011;33483;48.294;16.388;2022-07-23T09:18:57;4.93;;;3.53;;
47725;SDS011;33483;48.294;16.388;2022-07-23T09:21:30;5.05;;;3.33;;
47725;SDS011;33483;48.294;16.388;2022-07-23T09:24:15;6.95;;;3.60;;
47725;SDS011;33483;48.294;16.388;2022-07-23T09:26:45;7.72;;;4.10;;
47725;SDS011;33483;48.294;16.388;2022-07-23T09:31:58;5.57;;;3.65;;
47725;SDS011;33483;48.294;16.388;2022-07-23T09:34:33;5.85;;;3.30;;
47725;SDS011;33483;48.294;16.388;2022-07-23T09:37:14;4.68;;;3.20;;
47725;SDS011;33483;48.294;16.388;2022-07-23T09:39:48;4.10;;;3.50;;
47725;SDS011;33483;48.294;16.388;2022-07-23T09:44:55;8.35;;;4.32;;
47725;SDS011;33483;48.294;16.388;2022-07-23T09:47:29;4.78;;;3.30;;
47725;SDS011;33483;48.294;16.388;2022-07-23T09:52:31;7.13;;;4.35;;
47725;SDS011;33483;48.294;16.388;2022-07-23T09:55:10;8.13;;;3.60;;
47725;SDS011;33483;48.294;16.388;2022-07-23T09:57:38;6.32;;;3.95;;
47725;SDS011;33483;48.294;16.388;2022-07-23T10:00:08;4.60;;;3.17;;
47725;SDS011;33483;48.294;16.388;2022-07-23T10:02:38;4.47;;;3.28;;
47725;SDS011;33483;48.294;16.388;2022-07-23T10:05:26;6.55;;;4.15;;
47725;SDS011;33483;48.294;16.388;2022-07-23T10:08:01;4.90;;;3.85;;
47725;SDS011;33483;48.294;16.388;2022-07-23T10:10:48;7.35;;;4.03;;
47725;SDS011;33483;48.294;16.388;2022-07-23T10:13:36;5.13;;;3.50;;
47725;SDS011;33483;48.294;16.388;2022-07-23T10:16:42;6.55;;;3.95;;
47725;SDS011;33483;48.294;16.388;2022-07-23T10:19:11;6.15;;;3.53;;
47725;SDS011;33483;48.294;16.388;2022-07-23T10:26:50;8.02;;;3.67;;
47725;SDS011;33483;48.294;16.388;2022-07-23T10:32:02;6.70;;;4.57;;
47725;SDS011;33483;48.294;16.388;2022-07-23T10:37:43;6.82;;;4.28;;
47725;SDS011;33483;48.294;16.388;2022-07-23T10:40:16;10.90;;;4.50;;
47725;SDS011;33483;48.294;16.388;2022-07-23T10:42:47;9.27;;;4.50;;
47725;SDS011;33483;48.294;16.388;2022-07-23T10:45:39;6.25;;;4.53;;
47725;SDS011;33483;48.294;16.388;2022-07-23T10:50:44;7.25;;;4.03;;
47725;SDS011;33483;48.294;16.388;2022-07-23T10:53:54;5.68;;;3.75;;
47725;SDS011;33483;48.294;16.388;2022-07-23T10:59:26;6.68;;;4.65;;
47725;SDS011;33483;48.294;16.388;2022-07-23T11:01:53;6.00;;;4.45;;
47725;SDS011;33483;48.294;16.388;2022-07-23T11:04:22;5.55;;;4.68;;
47725;SDS011;33483;48.294;16.388;2022-07-23T11:07:20;7.35;;;4.68;;
47725;SDS011;33483;48.294;16.388;2022-07-23T11:09:48;7.80;;;4.78;;
47725;SDS011;33483;48.294;16.388;2022-07-23T11:17:28;7.88;;;4.72;;
47725;SDS011;33483;48.294;16.388;2022-07-23T11:22:38;10.52;;;5.55;;
47725;SDS011;33483;48.294;16.388;2022-07-23T11:25:13;6.18;;;4.93;;
47725;SDS011;33483;48.294;16.388;2022-07-23T11:28:12;5.82;;;4.70;;
47725;SDS011;33483;48.294;16.388;2022-07-23T11:30:46;9.95;;;5.07;;
47725;SDS011;33483;48.294;16.388;2022-07-23T11:35:46;7.75;;;5.15;;
47725;SDS011;33483;48.294;16.388;2022-07-23T11:38:20;7.65;;;4.90;;
47725;SDS011;33483;48.294;16.388;2022-07-23T11:40:49;7.85;;;4.78;;
47725;SDS011;33483;48.294;16.388;2022-07-23T11:43:19;9.20;;;4.70;;
47725;SDS011;33483;48.294;16.388;2022-07-23T11:45:58;7.30;;;5.40;;
47725;SDS011;33483;48.294;16.388;2022-07-23T11:48:27;7.45;;;4.72;;
47725;SDS011;33483;48.294;16.388;2022-07-23T11:50:57;6.38;;;5.28;;
47725;SDS011;33483;48.294;16.388;2022-07-23T11:56:08;8.82;;;4.93;;
47725;SDS011;33483;48.294;16.388;2022-07-23T11:58:38;6.38;;;4.57;;
47725;SDS011;33483;48.294;16.388;2022-07-23T12:01:21;9.57;;;5.70;;
47725;SDS011;33483;48.294;16.388;2022-07-23T12:03:50;8.45;;;5.30;;
47725;SDS011;33483;48.294;16.388;2022-07-23T12:06:18;9.10;;;5.20;;
47725;SDS011;33483;48.294;16.388;2022-07-23T12:08:45;7.03;;;4.80;;
47725;SDS011;33483;48.294;16.388;2022-07-23T12:11:17;6.85;;;5.20;;
47725;SDS011;33483;48.294;16.388;2022-07-23T12:13:54;5.93;;;4.97;;
47725;SDS011;33483;48.294;16.388;2022-07-23T12:16:23;9.90;;;5.07;;
47725;SDS011;33483;48.294;16.388;2022-07-23T12:18:50;8.00;;;4.85;;
47725;SDS011;33483;48.294;16.388;2022-07-23T12:21:17;5.85;;;5.05;;
47725;SDS011;33483;48.294;16.388;2022-07-23T12:23:48;9.43;;;4.90;;
47725;SDS011;33483;48.294;16.388;2022-07-23T12:26:15;10.63;;;4.82;;
47725;SDS011;33483;48.294;16.388;2022-07-23T12:28:42;7.75;;;4.78;;
47725;SDS011;33483;48.294;16.388;2022-07-23T12:31:25;7.30;;;3.92;;
47725;SDS011;33483;48.294;16.388;2022-07-23T12:33:56;9.95;;;4.55;;
47725;SDS011;33483;48.294;16.388;2022-07-23T12:36:37;8.00;;;4.80;;
47725;SDS011;33483;48.294;16.388;2022-07-23T12:39:11;8.25;;;4.10;;
47725;SDS011;33483;48.294;16.388;2022-07-23T12:41:52;7.20;;;4.47;;
47725;SDS011;33483;48.294;16.388;2022-07-23T12:44:20;9.23;;;4.78;;
47725;SDS011;33483;48.294;16.388;2022-07-23T12:46:51;7.93;;;4.53;;
47725;SDS011;33483;48.294;16.388;2022-07-23T12:49:26;6.72;;;4.07;;
47725;SDS011;33483;48.294;16.388;2022-07-23T12:51:56;8.93;;;4.75;;
47725;SDS011;33483;48.294;16.388;2022-07-23T12:54:27;5.70;;;3.80;;
47725;SDS011;33483;48.294;16.388;2022-07-23T12:56:57;8.10;;;4.78;;
47725;SDS011;33483;48.294;16.388;2022-07-23T12:59:30;6.22;;;4.57;;
47725;SDS011;33483;48.294;16.388;2022-07-23T13:01:58;8.73;;;4.30;;
47725;SDS011;33483;48.294;16.388;2022-07-23T13:04:26;7.88;;;4.50;;
47725;SDS011;33483;48.294;16.388;2022-07-23T13:06:54;5.35;;;3.90;;
47725;SDS011;33483;48.294;16.388;2022-07-23T13:09:26;5.95;;;3.90;;
47725;SDS011;33483;48.294;16.388;2022-07-23T13:11:58;7.93;;;4.05;;
47725;SDS011;33483;48.294;16.388;2022-07-23T13:14:26;7.47;;;3.63;;
47725;SDS011;33483;48.294;16.388;2022-07-23T13:16:55;5.00;;;3.47;;
47725;SDS011;33483;48.294;16.388;2022-07-23T13:19:25;6.60;;;3.35;;
47725;SDS011;33483;48.294;16.388;2022-07-23T13:21:54;10.00;;;3.65;;
47725;SDS011;33483;48.294;16.388;2022-07-23T13:24:23;6.35;;;3.25;;
47725;SDS011;33483;48.294;16.388;2022-07-23T13:26:51;4.40;;;3.03;;
47725;SDS011;33483;48.294;16.388;2022-07-23T13:29:19;6.65;;;3.08;;
47725;SDS011;33483;48.294;16.388;2022-07-23T13:31:48;4.13;;;3.15;;
47725;SDS011;33483;48.294;16.388;2022-07-23T13:34:16;3.90;;;3.00;;
47725;SDS011;33483;48.294;16.388;2022-07-23T13:36:44;5.22;;;3.30;;
47725;SDS011;33483;48.294;16.388;2022-07-23T13:39:13;5.97;;;3.22;;
47725;SDS011;33483;48.294;16.388;2022-07-23T13:41:40;5.20;;;3.20;;
47725;SDS011;33483;48.294;16.388;2022-07-23T13:44:17;3.63;;;3.08;;
47725;SDS011;33483;48.294;16.388;2022-07-23T13:46:47;4.78;;;2.90;;
47725;SDS011;33483;48.294;16.388;2022-07-23T13:49:20;4.15;;;2.92;;
47725;SDS011;33483;48.294;16.388;2022-07-23T13:51:48;4.85;;;2.63;;
47725;SDS011;33483;48.294;16.388;2022-07-23T13:54:18;4.80;;;2.92;;
47725;SDS011;33483;48.294;16.388;2022-07-23T13:56:46;4.70;;;2.70;;
47725;SDS011;33483;48.294;16.388;2022-07-23T13:59:13;3.75;;;2.30;;
47725;SDS011;33483;48.294;16.388;2022-07-23T14:01:41;6.63;;;2.28;;
47725;SDS011;33483;48.294;16.388;2022-07-23T14:04:28;2.35;;;1.88;;
47725;SDS011;33483;48.294;16.388;2022-07-23T14:06:56;4.03;;;2.17;;
47725;SDS011;33483;48.294;16.388;2022-07-23T14:09:29;3.38;;;2.00;;
47725;SDS011;33483;48.294;16.388;2022-07-23T14:11:56;3.70;;;1.80;;
47725;SDS011;33483;48.294;16.388;2022-07-23T14:14:24;4.97;;;2.13;;
47725;SDS011;33483;48.294;16.388;2022-07-23T14:16:54;5.90;;;2.22;;
47725;SDS011;33483;48.294;16.388;2022-07-23T14:19:22;4.68;;;2.20;;
47725;SDS011;33483;48.294;16.388;2022-07-23T14:21:49;2.15;;;1.92;;
47725;SDS011;33483;48.294;16.388;2022-07-23T14:24:17;3.63;;;2.03;;
47725;SDS011;33483;48.294;16.388;2022-07-23T14:26:47;3.10;;;2.17;;
47725;SDS011;33483;48.294;16.388;2022-07-23T14:29:15;3.10;;;2.10;;
47725;SDS011;33483;48.294;16.388;2022-07-23T14:31:42;4.93;;;2.17;;
47725;SDS011;33483;48.294;16.388;2022-07-23T14:34:09;5.20;;;2.25;;
47725;SDS011;33483;48.294;16.388;2022-07-23T14:36:38;3.28;;;2.13;;
47725;SDS011;33483;48.294;16.388;2022-07-23T14:39:05;2.20;;;1.77;;
47725;SDS011;33483;48.294;16.388;2022-07-23T14:41:37;2.33;;;2.00;;
47725;SDS011;33483;48.294;16.388;2022-07-23T14:44:07;2.38;;;2.00;;
47725;SDS011;33483;48.294;16.388;2022-07-23T14:46:35;2.80;;;2.22;;
47725;SDS011;33483;48.294;16.388;2022-07-23T14:49:03;3.85;;;2.50;;
47725;SDS011;33483;48.294;16.388;2022-07-23T14:51:32;3.97;;;2.30;;
47725;SDS011;33483;48.294;16.388;2022-07-23T14:53:59;5.40;;;3.00;;
47725;SDS011;33483;48.294;16.388;2022-07-23T14:56:26;5.97;;;2.67;;
47725;SDS011;33483;48.294;16.388;2022-07-23T14:58:53;3.30;;;2.38;;
47725;SDS011;33483;48.294;16.388;2022-07-23T15:01:22;4.82;;;2.60;;
47725;SDS011;33483;48.294;16.388;2022-07-23T15:03:52;2.70;;;2.30;;
47725;SDS011;33483;48.294;16.388;2022-07-23T15:06:22;5.80;;;2.60;;
47725;SDS011;33483;48.294;16.388;2022-07-23T15:08:51;2.97;;;2.47;;
47725;SDS011;33483;48.294;16.388;2022-07-23T15:11:19;3.22;;;2.28;;
47725;SDS011;33483;48.294;16.388;2022-07-23T15:13:46;3.25;;;2.40;;
47725;SDS011;33483;48.294;16.388;2022-07-23T15:16:14;3.95;;;2.70;;
47725;SDS011;33483;48.294;16.388;2022-07-23T15:18:43;3.78;;;3.13;;
47725;SDS011;33483;48.294;16.388;2022-07-23T15:21:10;5.05;;;3.20;;
47725;SDS011;33483;48.294;16.388;2022-07-23T15:23:38;5.40;;;3.33;;
47725;SDS011;33483;48.294;16.388;2022-07-23T15:26:06;4.88;;;3.22;;
47725;SDS011;33483;48.294;16.388;2022-07-23T15:28:37;4.78;;;3.35;;